Time;durP1;ratioP1;P1;durP2;ratioP2;P2;SDS_P1;SDS_P2;PMS_P1;PMS_P2;Temp;Humidity;BMP_temperature;BMP_pressure;BME280_temperature;BME280_humidity;BME280_pressure;Samples;Min_cycle;Max_cycle;Signal;HPM_P1;HPM_P2
2022/02/14 00:02:18;;;;;;;26.27;13.75;;;;;;;-0.89;73.70;102116.81;1764633;81;21224;-61
2022/02/14 00:05:25;;;;;;;23.80;14.00;;;;;;;-0.92;73.66;102119.13;1764607;81;21679;-61
2022/02/14 00:08:31;;;;;;;26.62;14.23;;;;;;;-0.95;73.75;102115.72;1764828;80;21307;-61
2022/02/14 00:11:37;;;;;;;22.87;13.62;;;;;;;-0.95;73.88;102124.63;1764226;81;21318;-61
2022/02/14 00:14:43;;;;;;;23.50;12.60;;;;;;;-0.98;73.92;102118.05;1764164;81;21213;-61
2022/02/14 00:17:49;;;;;;;22.05;13.10;;;;;;;-0.99;73.94;102116.30;1764670;81;21225;-63
2022/02/14 00:20:55;;;;;;;21.57;12.65;;;;;;;-1.03;73.89;102116.48;1764192;81;21184;-62
2022/02/14 00:24:02;;;;;;;30.15;15.63;;;;;;;-1.07;73.79;102117.52;1764130;81;21773;-62
2022/02/14 00:27:10;;;;;;;29.80;14.93;;;;;;;-1.11;73.65;102117.25;1764170;81;21412;-62
2022/02/14 00:30:16;;;;;;;31.15;17.42;;;;;;;-1.18;73.57;102103.17;1764132;81;21381;-62
2022/02/14 00:33:23;;;;;;;27.80;15.85;;;;;;;-1.20;73.49;102102.81;1764671;80;21185;-61
2022/02/14 00:36:27;;;;;;;32.03;16.23;;;;;;;-1.29;73.27;102097.34;1764072;81;21257;-62
2022/02/14 00:39:33;;;;;;;29.60;16.37;;;;;;;-1.37;73.26;102099.45;1764279;81;21240;-61
2022/02/14 00:42:38;;;;;;;35.65;18.92;;;;;;;-1.41;73.34;102086.20;1764221;81;21169;-62
2022/02/14 00:45:45;;;;;;;33.55;17.23;;;;;;;-1.41;73.55;102086.20;1763167;80;21781;-61
2022/02/14 00:48:52;;;;;;;32.58;18.27;;;;;;;-1.40;73.66;102084.80;1764160;81;21212;-63
2022/02/14 00:51:59;;;;;;;32.85;18.12;;;;;;;-1.37;73.78;102084.67;1764246;81;21166;-63
2022/02/14 00:55:04;;;;;;;37.45;19.37;;;;;;;-1.35;73.74;102088.19;1764165;81;21893;-62
2022/02/14 00:58:09;;;;;;;31.82;17.00;;;;;;;-1.34;73.59;102085.02;1764059;81;21731;-63
2022/02/14 01:01:14;;;;;;;41.20;20.72;;;;;;;-1.36;73.57;102093.63;1764160;81;21209;-62
2022/02/14 01:04:19;;;;;;;41.15;19.75;;;;;;;-1.40;73.55;102091.97;1764114;81;21429;-62
2022/02/14 01:07:24;;;;;;;42.40;21.10;;;;;;;-1.43;73.76;102090.75;1764122;81;21245;-62
2022/02/14 01:10:29;;;;;;;43.28;22.20;;;;;;;-1.46;73.89;102087.73;1764173;81;21223;-63
2022/02/14 01:13:37;;;;;;;40.43;21.95;;;;;;;-1.46;73.84;102090.87;1764232;81;21177;-62
2022/02/14 01:16:42;;;;;;;41.80;22.93;;;;;;;-1.56;73.51;102085.86;1764070;81;21671;-62
2022/02/14 01:19:51;;;;;;;44.30;22.30;;;;;;;-1.60;73.61;102083.31;1763708;81;21201;-62
2022/02/14 01:22:57;;;;;;;43.13;21.15;;;;;;;-1.67;73.49;102079.12;1764080;81;21325;-62
2022/02/14 01:26:02;;;;;;;41.53;21.95;;;;;;;-1.79;73.41;102079.11;1764144;81;21217;-62
2022/02/14 01:29:07;;;;;;;35.35;20.57;;;;;;;-1.85;73.56;102084.70;1764002;81;21410;-62
2022/02/14 01:32:13;;;;;;;40.38;20.90;;;;;;;-1.90;73.74;102077.28;1764015;81;21387;-62
2022/02/14 01:35:18;;;;;;;41.15;21.73;;;;;;;-1.90;74.01;102076.40;1764205;81;21248;-62
2022/02/14 01:38:23;;;;;;;36.85;20.15;;;;;;;-1.90;74.07;102069.69;1763998;81;21426;-62
2022/02/14 01:41:28;;;;;;;38.85;20.85;;;;;;;-1.92;73.96;102071.58;1764024;81;21212;-62
2022/02/14 01:44:46;;;;;;;36.45;20.12;;;;;;;-1.96;73.86;102065.89;1764062;81;21442;-62
2022/02/14 01:47:52;;;;;;;41.92;21.65;;;;;;;-2.02;73.88;102061.64;1755653;81;21249;-63
2022/02/14 01:50:57;;;;;;;39.35;21.02;;;;;;;-2.04;74.15;102070.20;1755566;81;21410;-63
2022/02/14 01:54:03;;;;;;;45.70;23.00;;;;;;;-2.04;74.24;102070.20;1755783;81;21288;-63
2022/02/14 01:57:08;;;;;;;42.78;22.48;;;;;;;-2.08;74.18;102068.55;1755559;81;21344;-62
2022/02/14 02:00:25;;;;;;;46.18;21.52;;;;;;;-2.10;74.21;102069.55;1755603;81;21350;-62
2022/02/14 02:03:31;;;;;;;38.92;21.80;;;;;;;-2.11;74.34;102067.32;1756508;81;21212;-63
2022/02/14 02:06:39;;;;;;;44.03;22.58;;;;;;;-2.11;74.34;102067.80;1755476;81;21221;-63
2022/02/14 02:09:45;;;;;;;39.08;20.20;;;;;;;-2.12;74.29;102078.11;1747247;81;21742;-62
2022/02/14 02:13:00;;;;;;;38.38;19.82;;;;;;;-2.14;74.33;102062.06;1755711;81;21213;-63
2022/02/14 02:16:06;;;;;;;41.35;19.75;;;;;;;-2.09;74.57;102059.22;1755311;81;21272;-62
2022/02/14 02:19:13;;;;;;;35.55;19.40;;;;;;;-2.06;74.39;102047.91;1755523;81;21655;-63
2022/02/14 02:22:18;;;;;;;38.05;18.27;;;;;;;-2.06;74.17;102057.80;1755668;81;21190;-62
2022/02/14 02:25:24;;;;;;;38.02;20.37;;;;;;;-2.07;74.10;102058.70;1755406;79;21367;-62
2022/02/14 02:28:31;;;;;;;37.58;18.87;;;;;;;-2.09;73.91;102055.19;1772617;80;21323;-63
2022/02/14 02:31:36;;;;;;;36.28;19.90;;;;;;;-2.15;73.72;102056.77;1764366;80;21343;-62
2022/02/14 02:34:46;;;;;;;41.88;22.25;;;;;;;-2.13;73.87;102048.20;1772539;79;21284;-63
2022/02/14 02:37:51;;;;;;;44.03;22.52;;;;;;;-2.13;73.86;102038.36;1772621;80;21363;-63
2022/02/14 02:40:58;;;;;;;43.20;21.93;;;;;;;-2.13;73.52;102050.42;1772545;79;21274;-63
2022/02/14 02:44:05;;;;;;;42.70;21.10;;;;;;;-2.19;73.46;102041.72;1772653;79;21347;-62
2022/02/14 02:47:14;;;;;;;41.42;21.05;;;;;;;-2.17;73.69;102040.72;1772751;79;21370;-62
2022/02/14 02:50:21;;;;;;;34.85;18.98;;;;;;;-2.18;73.44;102038.98;1772470;79;21189;-62
2022/02/14 02:53:26;;;;;;;36.77;21.73;;;;;;;-2.24;73.18;102044.58;1769471;80;21355;-63
2022/02/14 02:56:32;;;;;;;37.95;21.68;;;;;;;-2.29;73.06;102042.97;1772484;80;21224;-63
2022/02/14 02:59:39;;;;;;;43.92;21.33;;;;;;;-2.34;73.24;102037.77;1772000;80;21300;-63
2022/02/14 03:02:45;;;;;;;40.92;22.85;;;;;;;-2.32;73.35;102033.24;1771745;81;21170;-63
2022/02/14 03:05:50;;;;;;;39.40;20.77;;;;;;;-2.33;73.17;102040.85;1769426;81;21386;-63
2022/02/14 03:08:55;;;;;;;38.23;20.65;;;;;;;-2.36;73.10;102038.28;1692159;83;21215;-64
2022/02/14 03:12:01;;;;;;;42.50;20.80;;;;;;;-2.37;73.16;102041.91;1717320;82;21221;-63
2022/02/14 03:15:06;;;;;;;36.00;21.62;;;;;;;-2.34;73.22;102033.75;1742828;81;21228;-62
2022/02/14 03:18:11;;;;;;;43.10;21.52;;;;;;;-2.31;73.05;102028.73;1741764;82;21276;-62
2022/02/14 03:21:22;;;;;;;45.83;22.50;;;;;;;-2.33;72.75;102022.57;1742495;80;21327;-62
2022/02/14 03:24:24;;;;;;;42.80;22.82;;;;;;;-2.39;72.60;102020.08;1741735;81;21355;-64
2022/02/14 03:27:28;;;;;;;44.33;23.32;;;;;;;-2.41;72.73;102022.81;1741588;82;21319;-63
2022/02/14 03:30:33;;;;;;;41.13;21.05;;;;;;;-2.45;72.60;102023.88;1742062;81;21402;-64
2022/02/14 03:33:33;;;;;;;46.80;23.38;;;;;;;-2.50;72.63;102018.25;1735087;82;21347;-63
2022/02/14 03:36:38;;;;;;;52.90;26.42;;;;;;;-2.48;72.89;102015.94;1741841;82;21338;-63
2022/02/14 03:39:43;;;;;;;56.25;27.25;;;;;;;-2.44;72.89;102017.56;1741987;81;21267;-63
2022/02/14 03:42:48;;;;;;;49.48;24.57;;;;;;;-2.43;72.92;102018.00;1742174;82;21398;-63
2022/02/14 03:45:55;;;;;;;49.60;24.25;;;;;;;-2.40;73.01;102013.87;1742650;81;21842;-64
2022/02/14 03:49:01;;;;;;;45.67;23.73;;;;;;;-2.34;72.99;102009.62;1740962;81;21812;-64
2022/02/14 03:52:07;;;;;;;45.65;24.70;;;;;;;-2.34;72.65;102008.73;1740832;82;21193;-63
2022/02/14 03:55:13;;;;;;;47.60;22.80;;;;;;;-2.40;72.34;102019.23;1741583;81;21353;-63
2022/02/14 03:58:19;;;;;;;44.80;22.52;;;;;;;-2.44;72.52;102011.35;1742249;82;21206;-63
2022/02/14 04:01:26;;;;;;;43.80;23.92;;;;;;;-2.46;72.54;102014.55;1740670;82;21228;-63
2022/02/14 04:04:31;;;;;;;42.85;23.07;;;;;;;-2.47;72.46;102016.34;1740716;81;21224;-63
2022/02/14 04:07:38;;;;;;;43.35;22.15;;;;;;;-2.52;72.17;102018.30;1741222;82;21793;-62
2022/02/14 04:10:45;;;;;;;46.15;22.40;;;;;;;-2.62;71.90;102022.70;1740874;81;21196;-63
2022/02/14 04:13:51;;;;;;;43.95;21.80;;;;;;;-2.67;72.48;102017.51;1741049;82;21327;-63
2022/02/14 04:16:57;;;;;;;45.12;23.35;;;;;;;-2.64;72.82;102018.73;1741506;82;21208;-62
2022/02/14 04:20:03;;;;;;;44.10;23.05;;;;;;;-2.59;72.90;102011.42;1740799;81;21204;-63
2022/02/14 04:23:08;;;;;;;41.15;22.55;;;;;;;-2.57;72.75;102014.05;1740597;82;21340;-64
2022/02/14 04:26:13;;;;;;;43.42;22.50;;;;;;;-2.57;72.59;102012.25;1740682;81;21441;-62
2022/02/14 04:29:19;;;;;;;40.95;22.32;;;;;;;-2.65;72.14;102015.66;1734362;81;21525;-62
2022/02/14 04:32:24;;;;;;;39.40;21.93;;;;;;;-2.71;72.08;102006.95;1740611;82;21337;-62
2022/02/14 04:35:30;;;;;;;39.25;21.85;;;;;;;-2.78;71.97;102012.98;1740646;81;21232;-62
2022/02/14 04:38:36;;;;;;;46.42;23.52;;;;;;;-2.85;72.12;102002.05;1740545;82;21714;-63
2022/02/14 04:41:42;;;;;;;48.45;22.80;;;;;;;-2.85;72.43;102006.55;1740532;82;21265;-62
2022/02/14 04:44:47;;;;;;;47.60;23.92;;;;;;;-2.81;72.61;102005.05;1740758;81;21229;-63
2022/02/14 04:47:53;;;;;;;42.27;21.17;;;;;;;-2.77;72.64;102005.80;1740788;82;21204;-63
2022/02/14 04:50:58;;;;;;;47.48;24.02;;;;;;;-2.83;72.26;102004.22;1740319;81;21394;-63
2022/02/14 04:54:04;;;;;;;51.53;25.85;;;;;;;-2.90;72.20;102008.02;1740940;81;21212;-63
2022/02/14 04:57:09;;;;;;;58.83;27.13;;;;;;;-2.93;72.30;102005.44;1740734;82;21354;-64
2022/02/14 05:00:17;;;;;;;56.13;26.25;;;;;;;-2.95;72.54;102010.00;1733970;81;21236;-64
2022/02/14 05:03:23;;;;;;;54.90;27.37;;;;;;;-2.94;72.68;102011.73;1740610;82;21216;-63
2022/02/14 05:06:28;;;;;;;68.55;32.65;;;;;;;-2.89;72.73;102009.78;1741029;82;21402;-63
2022/02/14 05:09:34;;;;;;;73.12;35.05;;;;;;;-2.83;72.80;102002.87;1740631;81;21220;-63
2022/02/14 05:12:41;;;;;;;78.45;34.15;;;;;;;-2.78;72.79;102009.41;1740229;82;21347;-64
2022/02/14 05:15:46;;;;;;;76.77;36.73;;;;;;;-2.76;72.67;102010.25;1740331;81;21216;-64
2022/02/14 05:18:51;;;;;;;80.00;38.42;;;;;;;-2.75;72.63;102020.02;1740268;82;21177;-65
2022/02/14 05:21:56;;;;;;;70.05;33.95;;;;;;;-2.69;73.05;102030.08;1740340;82;21201;-65
2022/02/14 05:25:01;;;;;;;64.42;33.33;;;;;;;-2.61;73.36;102032.48;1740220;81;21235;-64
2022/02/14 05:28:13;;;;;;;74.25;35.28;;;;;;;-2.54;73.66;102041.62;1740470;82;21240;-64
2022/02/14 05:31:18;;;;;;;70.28;33.55;;;;;;;-2.48;73.80;102041.41;1740467;81;21224;-64
2022/02/14 05:34:24;;;;;;;62.15;32.48;;;;;;;-2.38;73.68;102046.84;1740589;81;21720;-64
2022/02/14 05:37:32;;;;;;;67.60;33.50;;;;;;;-2.30;73.65;102040.74;1740886;82;21312;-63
2022/02/14 05:40:39;;;;;;;65.45;34.95;;;;;;;-2.23;73.32;102042.74;1763539;79;21726;-63
2022/02/14 05:43:48;;;;;;;65.32;33.50;;;;;;;-2.27;72.79;102043.34;1764680;80;22185;-64
2022/02/14 05:46:58;;;;;;;67.80;34.35;;;;;;;-2.26;72.79;102047.77;1768400;81;21416;-64
2022/02/14 05:50:04;;;;;;;58.75;31.05;;;;;;;-2.24;72.71;102047.25;1762013;80;21780;-62
2022/02/14 05:53:11;;;;;;;56.58;31.55;;;;;;;-2.19;72.79;102056.47;1767295;80;21865;-63
2022/02/14 05:56:16;;;;;;;59.90;31.75;;;;;;;-2.12;73.10;102060.67;1768121;79;21244;-63
2022/02/14 05:59:21;;;;;;;64.92;32.88;;;;;;;-1.99;73.16;102059.30;1769178;80;21492;-64
2022/02/14 06:02:26;;;;;;;60.83;31.57;;;;;;;-1.92;73.09;102058.16;1769075;80;21249;-63
2022/02/14 06:05:32;;;;;;;58.00;29.52;;;;;;;-1.83;73.06;102057.36;1767998;80;21735;-64
2022/02/14 06:08:38;;;;;;;49.80;28.60;;;;;;;-1.76;72.99;102064.23;1769043;80;22295;-64
2022/02/14 06:11:46;;;;;;;45.48;26.73;;;;;;;-1.65;73.22;102070.56;1769569;80;21279;-62
2022/02/14 06:14:53;;;;;;;51.18;30.17;;;;;;;-1.49;73.80;102078.41;1768161;80;21190;-62
2022/02/14 06:18:00;;;;;;;58.73;32.20;;;;;;;-1.32;74.14;102083.16;1738040;82;22027;-63
2022/02/14 06:21:06;;;;;;;69.67;35.85;;;;;;;-1.14;74.43;102079.76;1738977;81;21236;-63
2022/02/14 06:24:12;;;;;;;77.20;39.88;;;;;;;-0.97;74.49;102070.55;1732028;81;21247;-63
2022/02/14 06:27:18;;;;;;;86.85;43.78;;;;;;;-0.82;74.30;102069.45;1745447;81;21732;-63
2022/02/14 06:30:25;;;;;;;74.97;41.37;;;;;;;-0.68;74.12;102076.47;1768984;80;21280;-63
2022/02/14 06:33:32;;;;;;;81.25;41.20;;;;;;;-0.54;74.01;102067.85;1769543;80;21171;-62
2022/02/14 06:36:38;;;;;;;69.27;37.25;;;;;;;-0.39;73.92;102067.18;1763049;80;21177;-63
2022/02/14 06:39:44;;;;;;;68.15;36.50;;;;;;;-0.24;73.83;102058.47;1758979;81;21197;-62
2022/02/14 06:42:50;;;;;;;73.28;37.50;;;;;;;-0.08;73.72;102055.52;1768982;79;21935;-63
2022/02/14 06:45:56;;;;;;;65.20;35.03;;;;;;;0.06;73.59;102054.42;1731261;82;21306;-63
2022/02/14 06:49:06;;;;;;;59.53;32.98;;;;;;;0.20;73.50;102057.36;1715264;82;21233;-63
2022/02/14 06:52:12;;;;;;;59.58;29.55;;;;;;;0.32;73.42;102054.09;1769101;78;21208;-62
2022/02/14 06:55:19;;;;;;;48.80;26.33;;;;;;;0.46;73.36;102060.22;1769616;79;21768;-64
2022/02/14 06:58:25;;;;;;;26.40;15.70;;;;;;;0.58;73.25;102049.73;1768554;81;21486;-62
2022/02/14 07:01:29;;;;;;;34.20;18.48;;;;;;;0.70;73.12;102043.76;1769444;80;21201;-62
2022/02/14 07:04:35;;;;;;;23.95;14.28;;;;;;;0.85;72.87;102051.59;1755997;81;21355;-61
2022/02/14 07:07:40;;;;;;;23.85;14.18;;;;;;;0.99;72.48;102059.42;1761615;81;21339;-62
2022/02/14 07:10:46;;;;;;;25.43;14.60;;;;;;;1.10;72.17;102058.42;1770004;79;21197;-64
2022/02/14 07:13:53;;;;;;;28.30;13.62;;;;;;;1.22;71.82;102053.76;1769326;80;21180;-63
2022/02/14 07:16:59;;;;;;;21.70;13.62;;;;;;;1.33;71.47;102049.20;1767214;80;21261;-63
2022/02/14 07:20:06;;;;;;;19.82;12.07;;;;;;;1.41;71.21;102057.28;1761870;81;21213;-63
2022/02/14 07:23:15;;;;;;;20.65;11.30;;;;;;;1.51;70.74;102059.93;1755910;81;21194;-64
2022/02/14 07:26:22;;;;;;;21.02;10.82;;;;;;;1.60;70.33;102060.42;1767271;80;21741;-63
2022/02/14 07:29:29;;;;;;;16.50;9.98;;;;;;;1.68;69.61;102057.73;1767496;81;21209;-63
2022/02/14 07:32:35;;;;;;;20.62;10.58;;;;;;;1.75;69.19;102056.91;1768093;80;21188;-63
2022/02/14 07:35:43;;;;;;;18.98;11.12;;;;;;;1.84;68.79;102056.46;1769034;80;21390;-62
2022/02/14 07:38:49;;;;;;;19.85;10.75;;;;;;;1.92;68.36;102056.44;1768424;80;21267;-63
2022/02/14 07:42:03;;;;;;;21.02;10.40;;;;;;;2.02;67.75;102059.53;1759059;81;21256;-66
2022/02/14 07:45:11;;;;;;;13.80;8.78;;;;;;;2.10;67.29;102062.70;1768000;81;21241;-62
2022/02/14 07:48:18;;;;;;;14.83;8.35;;;;;;;2.19;66.80;102052.78;1767563;81;21269;-65
2022/02/14 07:51:25;;;;;;;14.85;8.23;;;;;;;2.25;66.25;102050.59;1768477;81;21185;-62
2022/02/14 07:54:50;;;;;;;12.25;7.75;;;;;;;2.30;65.43;102049.02;1678216;83;21214;-61
2022/02/14 07:57:55;;;;;;;15.45;8.05;;;;;;;2.36;65.29;102050.04;1707327;84;21401;-62
2022/02/14 08:01:01;;;;;;;12.93;7.65;;;;;;;2.41;64.93;102058.27;1727464;81;21217;-66
2022/02/14 08:04:14;;;;;;;18.92;7.70;;;;;;;2.45;64.81;102053.58;1745302;81;21224;-63
2022/02/14 08:07:19;;;;;;;14.85;7.70;;;;;;;2.49;64.38;102049.77;1729839;82;21241;-65
2022/02/14 08:10:27;;;;;;;13.62;7.05;;;;;;;2.52;64.18;102044.20;1729359;81;21263;-64
2022/02/14 08:13:34;;;;;;;14.40;7.85;;;;;;;2.57;64.14;102040.77;1730427;81;21385;-63
2022/02/14 08:16:41;;;;;;;12.70;7.78;;;;;;;2.63;63.78;102036.37;1733777;82;21243;-64
2022/02/14 08:19:48;;;;;;;14.38;7.33;;;;;;;2.68;63.48;102036.98;1724088;81;21243;-65
2022/02/14 08:22:55;;;;;;;15.30;7.22;;;;;;;2.73;63.15;102038.45;1733796;82;21196;-64
2022/02/14 08:26:00;;;;;;;13.32;7.62;;;;;;;2.78;63.22;102029.62;1731230;81;21761;-63
2022/02/14 08:29:07;;;;;;;13.53;6.87;;;;;;;2.84;62.79;102037.37;1726331;81;21239;-63
2022/02/14 08:32:16;;;;;;;10.38;6.83;;;;;;;2.90;62.47;102037.53;1734144;81;21250;-63
2022/02/14 08:35:20;;;;;;;17.90;7.25;;;;;;;2.96;61.89;102042.58;1717094;82;21309;-64
2022/02/14 08:38:25;;;;;;;13.72;6.62;;;;;;;2.98;61.31;102039.31;1705554;83;21238;-64
2022/02/14 08:41:32;;;;;;;13.25;6.87;;;;;;;3.01;61.17;102041.84;1705182;84;21624;-64
2022/02/14 08:44:37;;;;;;;17.70;7.28;;;;;;;3.04;61.31;102032.20;1705450;82;21211;-64
2022/02/14 08:47:46;;;;;;;14.00;7.62;;;;;;;3.12;61.36;102033.98;1705615;83;21219;-62
2022/02/14 08:50:56;;;;;;;;;;;;;;;3.20;60.91;102024.06;1707995;82;21752;-63
2022/02/14 08:54:01;;;;;;;12.40;6.45;;;;;;;3.22;60.86;102017.59;1718329;79;20212;-63
2022/02/14 08:57:15;;;;;;;11.55;6.25;;;;;;;3.28;60.49;102023.14;1768059;81;21332;-63
2022/02/14 09:00:30;;;;;;;13.33;6.80;;;;;;;3.34;60.16;102026.84;1770490;79;21370;-60
2022/02/14 09:03:56;;;;;;;10.58;6.03;;;;;;;3.36;59.73;102025.80;1737052;81;21358;-61
2022/02/14 09:07:02;;;;;;;9.20;5.75;;;;;;;3.41;59.85;102014.19;1764010;80;21271;-63
2022/02/14 09:10:09;;;;;;;9.33;5.83;;;;;;;3.49;59.31;101998.38;1768652;80;21797;-61
2022/02/14 09:13:15;;;;;;;10.23;5.62;;;;;;;3.56;58.94;102006.53;1769807;80;21906;-61
2022/02/14 09:16:21;;;;;;;10.95;5.35;;;;;;;3.64;58.72;102009.66;1770572;79;21698;-61
2022/02/14 09:19:27;;;;;;;15.08;5.33;;;;;;;3.71;58.49;102000.69;1770716;79;21359;-60
2022/02/14 09:22:33;;;;;;;8.48;4.80;;;;;;;3.78;58.17;102000.68;1734696;82;21204;-60
2022/02/14 09:25:40;;;;;;;11.00;5.17;;;;;;;3.78;57.69;101990.73;1734083;82;21251;-62
2022/02/14 09:28:44;;;;;;;13.68;5.92;;;;;;;3.82;57.44;101998.19;1734353;82;21235;-59
2022/02/14 09:31:51;;;;;;;9.15;5.12;;;;;;;3.84;57.36;101993.05;1747875;81;21197;-62
2022/02/14 09:34:59;;;;;;;11.55;6.15;;;;;;;3.86;57.12;101981.66;1767055;81;21213;-62
2022/02/14 09:38:07;;;;;;;9.33;5.45;;;;;;;3.93;57.18;101978.94;1767331;81;21308;-62
2022/02/14 09:41:16;;;;;;;13.40;5.92;;;;;;;3.98;56.70;101982.24;1768435;80;21267;-60
2022/02/14 09:44:21;;;;;;;11.43;6.37;;;;;;;4.04;56.68;101981.00;1765720;79;21407;-62
2022/02/14 09:47:28;;;;;;;18.62;6.67;;;;;;;4.11;56.80;101971.03;1740132;82;21291;-60
2022/02/14 09:50:37;;;;;;;13.65;7.08;;;;;;;4.19;56.55;101970.55;1732354;81;21212;-60
2022/02/14 09:53:46;;;;;;;17.32;7.40;;;;;;;4.28;56.42;101964.05;1753982;81;21193;-61
2022/02/14 09:56:51;;;;;;;14.28;6.83;;;;;;;4.37;56.18;101966.68;1769241;81;21174;-59
2022/02/14 09:59:58;;;;;;;13.22;7.12;;;;;;;4.45;55.85;101966.59;1767662;80;21213;-59
2022/02/14 10:03:28;;;;;;;12.10;6.15;;;;;;;4.48;55.46;101965.03;1768283;80;21243;-60
2022/02/14 10:06:40;;;;;;;10.38;5.85;;;;;;;4.51;55.20;101959.41;1768437;80;21342;-60
2022/02/14 10:09:45;;;;;;;15.53;6.22;;;;;;;4.54;54.94;101953.78;1766747;80;21220;-61
2022/02/14 10:12:55;;;;;;;11.10;5.92;;;;;;;4.60;55.10;101956.09;1753382;80;21193;-59
2022/02/14 10:16:01;;;;;;;10.45;6.28;;;;;;;4.67;54.58;101943.48;1758958;81;21220;-59
2022/02/14 10:19:09;;;;;;;11.45;5.97;;;;;;;4.71;54.53;101941.81;1738940;81;21204;-60
2022/02/14 10:22:18;;;;;;;13.08;7.05;;;;;;;4.79;54.49;101945.41;1749296;81;21248;-60
2022/02/14 10:25:49;;;;;;;15.10;6.62;;;;;;;4.88;54.76;101940.72;1738371;81;21718;-60
2022/02/14 10:28:55;;;;;;;10.95;6.08;;;;;;;4.95;54.20;101939.36;1738829;82;21181;-61
2022/02/14 10:32:03;;;;;;;14.73;6.50;;;;;;;5.00;53.98;101943.96;1738525;82;21251;-60
2022/02/14 10:35:12;;;;;;;29.20;6.80;;;;;;;5.09;53.72;101943.38;1752442;79;21205;-59
2022/02/14 10:38:16;;;;;;;7.90;5.70;;;;;;;5.15;53.08;101937.05;1757030;81;21182;-59
2022/02/14 10:41:23;;;;;;;13.10;6.22;;;;;;;5.21;52.84;101935.75;1768435;80;21765;-61
2022/02/14 10:47:56;;;;;;;16.85;6.62;;;;;;;5.27;52.51;101924.46;1769373;80;21192;-58
2022/02/14 10:51:06;;;;;;;16.32;6.80;;;;;;;5.21;51.85;101918.10;1739789;81;21275;-59
2022/02/14 10:54:12;;;;;;;11.63;6.08;;;;;;;5.22;52.27;101917.99;1739791;81;21200;-59
2022/02/14 10:57:35;;;;;;;14.90;6.28;;;;;;;5.36;52.28;101918.42;1739181;80;21287;-60
2022/02/14 11:00:41;;;;;;;13.10;6.10;;;;;;;5.51;52.36;101917.36;1739619;81;21378;-60
2022/02/14 11:03:48;;;;;;;10.58;6.28;;;;;;;5.62;51.92;101924.27;1739051;82;21399;-60
2022/02/14 11:06:55;;;;;;;19.15;6.62;;;;;;;5.71;51.69;101918.19;1739702;82;21328;-61
2022/02/14 11:10:03;;;;;;;14.10;6.42;;;;;;;5.81;51.31;101908.42;1739185;81;21742;-61
2022/02/14 11:13:11;;;;;;;12.03;6.12;;;;;;;5.85;50.92;101906.77;1738607;82;21547;-60
2022/02/14 11:16:18;;;;;;;10.40;6.20;;;;;;;5.81;51.34;101911.14;1766754;81;21268;-60
2022/02/14 11:19:26;;;;;;;12.95;6.67;;;;;;;5.83;51.18;101906.03;1762942;79;21401;-60
2022/02/14 11:22:38;;;;;;;10.03;6.40;;;;;;;5.89;51.47;101900.63;1769611;80;21426;-60
2022/02/14 11:26:08;;;;;;;16.93;6.08;;;;;;;5.98;51.37;101899.48;1768233;79;21267;-61
2022/02/14 11:29:36;;;;;;;12.55;6.25;;;;;;;6.05;51.02;101898.08;1767115;81;21410;-61
2022/02/14 11:32:43;;;;;;;10.08;5.78;;;;;;;6.09;50.19;101903.66;1768930;81;21185;-64
2022/02/14 11:36:06;;;;;;;10.82;4.70;;;;;;;6.11;50.32;101900.83;1769794;79;21208;-63
2022/02/14 11:39:19;;;;;;;15.40;5.62;;;;;;;6.18;49.91;101899.90;1767553;79;21690;-63
2022/02/14 11:42:25;;;;;;;14.13;5.70;;;;;;;6.20;49.06;101886.56;1758829;80;21542;-62
2022/02/14 11:45:31;;;;;;;15.35;6.35;;;;;;;6.22;49.11;101889.16;1769167;79;21569;-62
2022/02/14 11:48:36;;;;;;;12.07;6.20;;;;;;;6.33;48.96;101878.41;1765030;80;21248;-62
2022/02/14 11:52:06;;;;;;;12.58;5.40;;;;;;;6.33;48.60;101886.56;1762574;80;21252;-65
2022/02/14 11:55:15;;;;;;;13.28;6.33;;;;;;;6.36;48.91;101879.02;1758409;80;21264;-65
2022/02/14 11:58:26;;;;;;;12.78;6.25;;;;;;;6.50;48.71;101869.87;1755299;79;21737;-64
2022/02/14 12:01:30;;;;;;;12.28;5.90;;;;;;;6.46;48.34;101874.66;1758567;80;21180;-63
2022/02/14 12:04:46;;;;;;;12.88;5.55;;;;;;;6.47;48.47;101868.22;1765220;79;21225;-65
2022/02/14 12:08:03;;;;;;;14.75;8.23;;;;;;;6.58;48.61;101865.57;1770888;80;21264;-66
2022/02/14 12:11:09;;;;;;;10.53;6.40;;;;;;;6.73;48.62;101872.61;1767353;79;21591;-64
2022/02/14 12:14:24;;;;;;;10.00;5.37;;;;;;;6.89;48.11;101858.22;1747011;79;21565;-65
2022/02/14 12:21:19;;;;;;;16.00;5.95;;;;;;;7.21;47.46;101859.36;1768523;80;21208;-63
2022/02/14 12:24:29;;;;;;;13.40;6.42;;;;;;;7.34;46.97;101857.91;1749751;80;21718;-64
2022/02/14 12:27:38;;;;;;;12.53;6.72;;;;;;;7.27;47.18;101853.42;1755097;80;21203;-64
2022/02/14 12:30:50;;;;;;;14.20;6.83;;;;;;;7.30;47.36;101853.19;1764124;81;22078;-63
2022/02/14 12:33:55;;;;;;;14.55;6.60;;;;;;;7.38;47.06;101848.02;1759132;79;21805;-65
2022/02/14 12:37:08;;;;;;;19.87;7.85;;;;;;;7.45;46.80;101842.44;1750225;80;21295;-64
2022/02/14 12:40:15;;;;;;;14.93;7.10;;;;;;;7.52;46.42;101841.47;1760315;79;21189;-63
2022/02/14 12:43:41;;;;;;;14.85;6.92;;;;;;;7.57;46.33;101840.13;1761931;80;21201;-64
2022/02/14 12:46:46;;;;;;;14.63;6.55;;;;;;;7.64;46.18;101840.00;1767743;80;21209;-63
2022/02/14 12:50:13;;;;;;;12.78;7.22;;;;;;;7.73;46.02;101838.41;1767196;79;21852;-66
2022/02/14 12:53:19;;;;;;;14.53;7.50;;;;;;;7.77;45.71;101848.06;1764613;80;21289;-65
2022/02/14 12:56:26;;;;;;;14.73;7.78;;;;;;;7.79;45.06;101841.13;1751653;81;21267;-64
2022/02/14 12:59:34;;;;;;;17.92;7.80;;;;;;;7.77;45.29;101833.59;1757634;79;21200;-64
2022/02/14 13:02:43;;;;;;;18.23;8.60;;;;;;;7.73;44.92;101834.81;1760306;80;21209;-63
2022/02/14 13:05:57;;;;;;;21.73;9.38;;;;;;;7.75;45.18;101830.11;1748580;81;21232;-63
2022/02/14 13:09:04;;;;;;;14.47;7.42;;;;;;;7.83;45.02;101819.46;1762289;79;21220;-63
2022/02/14 13:12:15;;;;;;;20.57;9.40;;;;;;;7.93;44.65;101824.03;1767085;81;21256;-64
2022/02/14 13:15:21;;;;;;;15.60;8.28;;;;;;;8.03;44.24;101817.34;1766869;79;21271;-63
2022/02/14 13:18:29;;;;;;;18.65;7.30;;;;;;;8.07;43.85;101817.48;1750506;79;22009;-63
2022/02/14 13:21:34;;;;;;;17.02;9.38;;;;;;;8.08;43.37;101809.17;1763133;81;21261;-65
2022/02/14 13:24:41;;;;;;;18.32;9.43;;;;;;;8.09;43.48;101812.75;1755106;79;21583;-63
2022/02/14 13:27:50;;;;;;;15.95;8.50;;;;;;;8.12;43.59;101801.62;1755496;81;21176;-62
2022/02/14 13:30:59;;;;;;;19.55;9.08;;;;;;;8.10;43.81;101803.11;1743426;80;21601;-64
2022/02/14 13:34:06;;;;;;;21.10;9.98;;;;;;;8.08;43.48;101796.02;1760684;79;21177;-63
2022/02/14 13:37:19;;;;;;;18.57;10.90;;;;;;;8.04;43.46;101795.92;1731950;82;21195;-64
2022/02/14 13:40:35;;;;;;;21.25;10.50;;;;;;;8.00;43.42;101788.48;1762114;79;21624;-63
2022/02/14 13:43:44;;;;;;;15.38;8.18;;;;;;;8.01;43.57;101782.02;1751118;80;21193;-64
2022/02/14 13:46:50;;;;;;;18.82;9.73;;;;;;;8.05;43.76;101786.73;1757166;81;21186;-64
2022/02/14 13:49:56;;;;;;;18.02;9.08;;;;;;;8.08;43.36;101779.66;1764987;80;21505;-63
2022/02/14 13:53:03;;;;;;;16.65;8.73;;;;;;;8.05;43.17;101786.73;1756388;81;21797;-64
2022/02/14 13:56:23;;;;;;;14.73;8.63;;;;;;;8.01;43.62;101780.66;1743438;79;21225;-64
2022/02/14 13:59:33;;;;;;;18.05;9.00;;;;;;;8.01;43.83;101783.90;1737303;80;21742;-63
2022/02/14 14:02:39;;;;;;;17.32;9.73;;;;;;;7.97;43.91;101783.28;1754531;81;21522;-64
2022/02/14 14:05:49;;;;;;;16.65;9.90;;;;;;;7.93;44.15;101780.41;1754994;80;21220;-63
2022/02/14 14:08:55;;;;;;;19.32;10.75;;;;;;;7.90;44.29;101777.06;1699605;83;21192;-63
2022/02/14 14:12:02;;;;;;;23.05;10.55;;;;;;;7.81;44.27;101771.00;1688649;83;21658;-62
2022/02/14 14:15:09;;;;;;;22.93;11.45;;;;;;;7.73;44.76;101766.66;1759016;81;21181;-63
2022/02/14 14:18:16;;;;;;;21.23;11.08;;;;;;;7.59;45.22;101771.36;1762458;81;21197;-63
2022/02/14 14:21:21;;;;;;;21.65;11.45;;;;;;;7.41;45.79;101766.52;1755451;80;21209;-63
2022/02/14 14:24:27;;;;;;;20.10;11.53;;;;;;;7.25;46.46;101768.23;1746858;80;21749;-62
2022/02/14 14:27:32;;;;;;;24.80;13.22;;;;;;;7.11;46.80;101766.22;1765484;81;21221;-63
2022/02/14 14:30:39;;;;;;;27.77;13.05;;;;;;;6.98;47.38;101771.75;1760409;81;21220;-63